createdAt,value
2017-07-30T00:00:44.768Z,50.93
2017-07-30T00:03:12.659Z,56.00
2017-07-30T00:05:40.589Z,58.73
2017-07-30T00:08:08.494Z,53.13
2017-07-30T00:10:36.393Z,54.03
2017-07-30T00:13:04.390Z,51.23
2017-07-30T00:15:32.277Z,58.20
2017-07-30T00:18:00.193Z,54.40
2017-07-30T00:20:28.127Z,59.30
2017-07-30T00:22:56.032Z,60.60
2017-07-30T00:25:23.919Z,54.30
2017-07-30T00:27:51.857Z,68.17
2017-07-30T00:30:19.747Z,61.77
2017-07-30T00:32:47.691Z,56.67
2017-07-30T00:35:15.644Z,56.70
2017-07-30T00:37:43.576Z,59.13
2017-07-30T00:40:11.546Z,65.27
2017-07-30T00:42:39.446Z,58.10
2017-07-30T00:45:07.358Z,59.00
2017-07-30T00:47:35.362Z,62.03
2017-07-30T00:50:03.263Z,59.10
2017-07-30T00:52:31.123Z,57.50
2017-07-30T00:54:59.050Z,64.07
2017-07-30T00:57:27.035Z,66.53
2017-07-30T00:59:54.958Z,67.13
2017-07-30T01:02:22.881Z,74.87
2017-07-30T01:04:50.778Z,69.97
2017-07-30T01:07:18.681Z,57.73
2017-07-30T01:09:46.610Z,65.73
2017-07-30T01:12:14.499Z,59.83
2017-07-30T01:14:42.491Z,68.37
2017-07-30T01:17:10.407Z,61.30
2017-07-30T01:19:38.331Z,59.70
2017-07-30T01:22:12.493Z,60.70
2017-07-30T01:24:40.427Z,71.17
2017-07-30T01:27:08.339Z,59.67
2017-07-30T01:29:36.252Z,61.60
2017-07-30T01:32:04.179Z,70.70
2017-07-30T01:34:32.132Z,59.20
2017-07-30T01:37:00.163Z,62.37
2017-07-30T01:39:28.107Z,62.40
2017-07-30T01:41:56.023Z,64.40
2017-07-30T01:44:23.927Z,63.00
2017-07-30T01:46:51.855Z,56.83
2017-07-30T01:49:19.741Z,69.63
2017-07-30T01:51:47.671Z,71.47
2017-07-30T01:54:15.734Z,70.07
2017-07-30T01:56:43.627Z,61.10
2017-07-30T01:59:11.551Z,64.20
2017-07-30T02:01:39.462Z,63.23
2017-07-30T02:04:07.417Z,71.27
2017-07-30T02:06:35.326Z,67.67
2017-07-30T02:09:03.316Z,75.87
2017-07-30T02:11:31.215Z,64.80
2017-07-30T02:13:59.123Z,61.40
2017-07-30T02:16:27.067Z,58.20
2017-07-30T02:18:55.020Z,67.00
2017-07-30T02:21:22.899Z,60.93
2017-07-30T02:23:50.831Z,64.40
2017-07-30T02:26:18.805Z,63.70
2017-07-30T02:28:46.702Z,59.17
2017-07-30T02:31:14.582Z,63.93
2017-07-30T02:33:42.515Z,69.30
2017-07-30T02:36:10.422Z,66.10
2017-07-30T02:38:38.325Z,67.87
2017-07-30T02:41:06.242Z,59.47
2017-07-30T02:43:34.181Z,60.13
2017-07-30T02:46:02.119Z,61.87
2017-07-30T02:48:30.057Z,63.80
2017-07-30T02:50:57.981Z,65.77
2017-07-30T02:53:25.872Z,63.43
2017-07-30T02:55:53.782Z,73.17
2017-07-30T02:58:21.702Z,62.87
2017-07-30T03:00:49.679Z,62.53
2017-07-30T03:03:17.566Z,69.13
2017-07-30T03:05:45.484Z,60.70
2017-07-30T03:08:13.366Z,67.80
2017-07-30T03:10:41.282Z,64.90
2017-07-30T03:13:09.399Z,63.50
2017-07-30T03:15:37.298Z,68.40
2017-07-30T03:18:05.254Z,70.40
2017-07-30T03:20:33.150Z,60.10
2017-07-30T03:23:01.053Z,70.60
2017-07-30T03:25:28.963Z,63.33
2017-07-30T03:27:56.874Z,68.10
2017-07-30T03:30:24.816Z,63.83
2017-07-30T03:32:52.694Z,66.43
2017-07-30T03:35:20.623Z,69.23
2017-07-30T03:37:48.502Z,79.20
2017-07-30T03:40:16.387Z,68.17
2017-07-30T03:42:44.293Z,76.80
2017-07-30T03:45:12.184Z,67.20
2017-07-30T03:47:40.201Z,67.20
2017-07-30T03:50:08.097Z,68.57
2017-07-30T03:52:36.022Z,74.40
2017-07-30T03:55:03.915Z,73.47
2017-07-30T03:57:31.845Z,68.60
2017-07-30T03:59:59.701Z,76.33
2017-07-30T04:02:27.613Z,67.13
2017-07-30T04:04:55.497Z,68.90
2017-07-30T04:07:23.431Z,71.40
2017-07-30T04:09:51.350Z,69.30
2017-07-30T04:12:19.243Z,71.70
2017-07-30T04:14:47.195Z,66.87
2017-07-30T04:17:15.106Z,67.77
2017-07-30T04:19:43.011Z,69.40
2017-07-30T04:22:10.909Z,66.83
2017-07-30T04:24:38.822Z,71.60
2017-07-30T04:27:06.698Z,75.37
2017-07-30T04:29:34.581Z,69.13
2017-07-30T04:32:02.498Z,74.00
2017-07-30T04:34:30.399Z,69.87
2017-07-30T04:36:58.306Z,73.33
2017-07-30T04:39:26.241Z,64.70
2017-07-30T04:41:54.128Z,66.33
2017-07-30T04:44:22.049Z,61.17
2017-07-30T04:46:49.978Z,66.50
2017-07-30T04:49:17.927Z,67.70
2017-07-30T04:51:45.831Z,65.27
2017-07-30T04:54:13.772Z,67.33
2017-07-30T04:56:41.708Z,70.70
2017-07-30T04:59:09.709Z,65.03
2017-07-30T05:01:37.626Z,71.70
2017-07-30T05:04:05.530Z,66.07
2017-07-30T05:06:33.413Z,68.50
2017-07-30T05:09:01.322Z,70.30
2017-07-30T05:11:29.212Z,69.50
2017-07-30T05:13:57.096Z,72.90
2017-07-30T05:16:24.985Z,69.40
2017-07-30T05:18:52.853Z,66.30
2017-07-30T05:21:20.800Z,70.20
2017-07-30T05:23:48.787Z,66.27
2017-07-30T05:26:16.728Z,68.30
2017-07-30T05:28:44.827Z,67.60
2017-07-30T05:31:12.781Z,66.13
2017-07-30T05:33:42.831Z,66.60
2017-07-30T05:36:17.937Z,64.73
2017-07-30T05:38:45.898Z,60.70
2017-07-30T05:41:13.839Z,64.73
2017-07-30T05:43:41.834Z,66.43
2017-07-30T05:46:09.730Z,66.00
2017-07-30T05:48:37.657Z,64.90
2017-07-30T05:51:05.667Z,66.33
2017-07-30T05:53:33.608Z,60.63
2017-07-30T05:56:01.595Z,62.33
2017-07-30T05:58:29.577Z,72.33
2017-07-30T06:00:57.569Z,65.30
2017-07-30T06:03:25.563Z,67.00
2017-07-30T06:05:53.594Z,66.23
2017-07-30T06:08:21.575Z,55.90
2017-07-30T06:10:49.704Z,59.73
2017-07-30T06:13:17.605Z,63.40
2017-07-30T06:15:45.550Z,61.87
2017-07-30T06:18:13.665Z,60.83
2017-07-30T06:20:41.630Z,58.83
2017-07-30T06:23:09.778Z,55.80
2017-07-30T06:25:37.772Z,59.63
2017-07-30T06:28:05.764Z,57.50
2017-07-30T06:30:33.835Z,60.47
2017-07-30T06:33:01.881Z,63.93
2017-07-30T06:35:29.950Z,60.47
2017-07-30T06:37:57.950Z,55.50
2017-07-30T06:40:25.883Z,54.50
2017-07-30T06:42:53.979Z,57.77
2017-07-30T06:45:22.028Z,65.57
2017-07-30T06:47:49.969Z,66.33
2017-07-30T06:50:17.863Z,56.80
2017-07-30T06:52:46.100Z,56.40
2017-07-30T06:55:14.024Z,60.90
2017-07-30T06:57:42.008Z,60.13
2017-07-30T07:00:09.922Z,56.30
2017-07-30T07:02:39.961Z,59.40
2017-07-30T07:05:08.012Z,55.83
2017-07-30T07:07:35.949Z,55.40
2017-07-30T07:10:04.905Z,57.73
2017-07-30T07:12:32.862Z,58.53
2017-07-30T07:15:00.824Z,60.17
2017-07-30T07:17:28.748Z,57.70
2017-07-30T07:19:56.636Z,54.77
2017-07-30T07:22:24.708Z,51.70
2017-07-30T07:24:52.610Z,51.10
2017-07-30T07:27:20.552Z,54.60
2017-07-30T07:29:48.488Z,52.43
2017-07-30T07:32:16.390Z,52.10
2017-07-30T07:34:44.390Z,51.17
2017-07-30T07:37:12.362Z,56.60
2017-07-30T07:39:40.470Z,54.27
2017-07-30T07:42:08.347Z,51.10
2017-07-30T07:44:36.626Z,54.10
2017-07-30T07:47:04.858Z,50.90
2017-07-30T07:49:32.811Z,51.50
2017-07-30T07:52:01.502Z,51.30
2017-07-30T07:54:29.775Z,51.67
2017-07-30T07:56:58.030Z,58.70
2017-07-30T07:59:26.179Z,50.83
2017-07-30T08:01:54.635Z,47.67
2017-07-30T08:04:22.555Z,52.00
2017-07-30T08:06:57.330Z,51.20
2017-07-30T08:09:28.857Z,49.10
2017-07-30T08:11:56.803Z,52.27
2017-07-30T08:14:25.606Z,51.67
2017-07-30T08:17:08.063Z,53.93
2017-07-30T08:19:36.716Z,51.13
2017-07-30T08:22:04.613Z,51.77
2017-07-30T08:24:32.513Z,48.93
2017-07-30T08:29:35.746Z,53.80
2017-07-30T08:32:03.724Z,51.33
2017-07-30T08:34:31.642Z,48.50
2017-07-30T08:36:59.592Z,51.80
2017-07-30T08:39:27.502Z,47.50
2017-07-30T08:41:55.495Z,49.80
2017-07-30T08:44:23.400Z,51.17
2017-07-30T08:46:51.557Z,50.10
2017-07-30T08:49:19.509Z,50.93
2017-07-30T08:51:47.761Z,46.60
2017-07-30T08:54:15.807Z,51.43
2017-07-30T08:56:44.350Z,48.40
2017-07-30T08:59:12.998Z,49.73
2017-07-30T09:01:41.986Z,52.93
2017-07-30T09:04:10.696Z,48.73
2017-07-30T09:06:56.374Z,52.23
2017-07-30T09:09:24.345Z,52.20
2017-07-30T09:11:52.398Z,47.07
2017-07-30T09:14:21.005Z,47.13
2017-07-30T09:16:49.489Z,52.60
2017-07-30T09:19:17.691Z,46.70
2017-07-30T09:21:45.666Z,48.03
2017-07-30T09:24:13.615Z,48.30
2017-07-30T09:26:45.918Z,50.70
2017-07-30T09:29:13.924Z,48.67
2017-07-30T09:31:42.318Z,46.87
2017-07-30T09:34:10.371Z,43.97
2017-07-30T09:36:38.293Z,45.97
2017-07-30T09:39:07.382Z,45.17
2017-07-30T09:41:35.311Z,43.60
2017-07-30T09:44:03.375Z,52.37
2017-07-30T09:46:31.340Z,44.83
2017-07-30T09:48:59.295Z,45.07
2017-07-30T09:51:27.251Z,43.90
2017-07-30T09:53:55.212Z,48.53
2017-07-30T09:56:23.124Z,46.67
2017-07-30T09:58:51.186Z,46.50
2017-07-30T10:01:19.174Z,46.30
2017-07-30T10:03:48.375Z,46.50
2017-07-30T10:06:16.352Z,50.63
2017-07-30T10:08:44.339Z,46.03
2017-07-30T10:11:12.348Z,43.03
2017-07-30T10:13:40.257Z,44.93
2017-07-30T10:16:09.547Z,47.53
2017-07-30T10:18:37.897Z,43.50
2017-07-30T10:21:05.973Z,45.50
2017-07-30T10:23:33.927Z,44.13
2017-07-30T10:26:01.899Z,49.23
2017-07-30T10:28:29.910Z,46.00
2017-07-30T10:30:58.214Z,41.87
2017-07-30T10:33:32.141Z,43.10
2017-07-30T10:36:00.056Z,45.57
2017-07-30T10:38:28.331Z,44.87
2017-07-30T10:40:56.436Z,45.67
2017-07-30T10:43:24.847Z,48.80
2017-07-30T10:45:52.878Z,50.93
2017-07-30T10:48:20.969Z,43.43
2017-07-30T10:50:48.970Z,43.80
2017-07-30T10:53:17.236Z,43.63
2017-07-30T10:58:25.764Z,45.20
2017-07-30T11:00:56.746Z,41.77
2017-07-30T11:03:25.199Z,47.60
2017-07-30T11:05:55.093Z,42.47
2017-07-30T11:08:24.854Z,47.10
2017-07-30T11:13:35.788Z,45.20
2017-07-30T11:16:03.763Z,42.00
2017-07-30T11:21:21.475Z,48.83
2017-07-30T11:23:53.232Z,39.97
2017-07-30T11:26:21.195Z,43.00
2017-07-30T11:28:49.261Z,42.90
2017-07-30T11:31:23.490Z,44.03
2017-07-30T11:33:51.785Z,44.77
2017-07-30T11:36:20.046Z,42.53
2017-07-30T11:38:48.033Z,43.53
2017-07-30T11:41:16.002Z,46.07
2017-07-30T11:43:44.347Z,48.93
2017-07-30T11:46:13.082Z,40.67
2017-07-30T11:48:41.956Z,42.13
2017-07-30T11:53:57.591Z,52.93
2017-07-30T11:59:25.043Z,41.10
2017-07-30T12:04:41.574Z,47.70
2017-07-30T12:18:24.539Z,44.87
2017-07-30T12:20:52.478Z,45.83
2017-07-30T12:26:11.084Z,46.17
2017-07-30T12:28:40.666Z,45.77
2017-07-30T12:31:08.684Z,45.43
2017-07-30T12:33:36.659Z,46.50
2017-07-30T12:36:07.024Z,51.53
2017-07-30T12:44:09.743Z,45.83
2017-07-30T12:46:45.365Z,44.40
2017-07-30T12:49:15.686Z,43.40
2017-07-30T12:57:18.807Z,42.03
2017-07-30T12:59:59.922Z,46.00
2017-07-30T13:05:15.982Z,42.63
2017-07-30T13:13:27.119Z,46.03
2017-07-30T13:16:08.192Z,45.17
2017-07-30T13:18:51.438Z,42.60
2017-07-30T13:23:55.874Z,41.77
2017-07-30T13:26:23.772Z,47.80
2017-07-30T13:31:39.554Z,46.70
2017-07-30T13:34:05.799Z,41.20
2017-07-30T13:36:40.093Z,41.03
2017-07-30T13:39:13.678Z,47.47
2017-07-30T13:44:38.161Z,41.30
2017-07-30T13:47:04.477Z,45.23
2017-07-30T13:52:23.571Z,42.50
2017-07-30T14:06:09.428Z,44.40
2017-07-30T14:08:46.281Z,45.63
2017-07-30T14:11:12.708Z,41.43
2017-07-30T14:13:39.024Z,43.30
2017-07-30T14:16:30.004Z,46.03
2017-07-30T14:18:56.838Z,46.73
2017-07-30T14:21:23.086Z,45.03
2017-07-30T14:23:52.881Z,49.03
2017-07-30T14:26:36.122Z,41.37
2017-07-30T14:29:02.520Z,41.90
2017-07-30T14:40:07.564Z,41.97
2017-07-30T14:42:33.820Z,44.53
2017-07-30T14:47:54.657Z,45.13
2017-07-30T14:50:20.922Z,45.23
2017-07-30T14:55:39.966Z,51.43
2017-07-30T15:01:00.638Z,46.67
2017-07-30T15:06:20.168Z,48.00
2017-07-30T15:08:47.262Z,44.50
2017-07-30T15:14:08.493Z,45.20
2017-07-30T15:16:52.276Z,48.57
2017-07-30T15:19:18.618Z,47.33
2017-07-30T15:36:22.997Z,47.80
2017-07-30T15:38:49.470Z,49.53
2017-07-30T15:41:15.739Z,47.50
2017-07-30T15:43:42.030Z,43.30
2017-07-30T15:46:24.803Z,46.27
2017-07-30T15:48:56.256Z,43.57
2017-07-30T15:54:25.183Z,54.90
2017-07-30T15:56:51.387Z,40.40
2017-07-30T15:59:22.882Z,43.60
2017-07-30T16:01:49.507Z,44.37
2017-07-30T16:04:15.906Z,48.07
2017-07-30T16:21:06.827Z,43.60
2017-07-30T16:23:33.928Z,47.30
2017-07-30T16:29:16.572Z,44.37
2017-07-30T16:31:43.170Z,42.83
2017-07-30T16:34:09.467Z,45.90
2017-07-30T16:36:51.054Z,43.13
2017-07-30T16:42:20.660Z,44.87
2017-07-30T16:44:48.059Z,45.80
2017-07-30T16:47:18.065Z,46.70
2017-07-30T17:01:27.094Z,50.20
2017-07-30T17:03:55.679Z,51.73
2017-07-30T17:15:07.047Z,41.10
2017-07-30T17:17:35.454Z,41.10
2017-07-30T17:20:10.004Z,46.00
2017-07-30T17:31:07.960Z,48.77
2017-07-30T17:39:29.002Z,42.93
2017-07-30T17:47:45.647Z,47.50
2017-07-30T17:50:12.132Z,41.37
2017-07-30T17:52:39.231Z,44.17
2017-07-30T17:57:58.541Z,44.00
2017-07-30T18:00:29.145Z,43.50
2017-07-30T18:51:44.715Z,45.27
2017-07-30T18:57:19.294Z,47.77
2017-07-30T19:15:24.229Z,47.10
2017-07-30T19:17:50.735Z,47.60
2017-07-30T19:20:24.640Z,45.47
2017-07-30T19:37:22.203Z,49.47
2017-07-30T20:00:17.486Z,46.97
2017-07-30T20:03:00.159Z,51.87
2017-07-30T20:05:34.016Z,50.03
2017-07-30T20:19:43.772Z,48.87
2017-07-30T20:22:10.313Z,57.33
2017-07-30T20:24:52.950Z,49.33
2017-07-30T20:27:23.750Z,49.17
2017-07-30T20:30:08.279Z,49.33
2017-07-30T20:32:39.966Z,51.97
2017-07-30T20:35:08.114Z,47.30
2017-07-30T20:37:37.789Z,47.50
2017-07-30T20:40:25.700Z,47.87
2017-07-30T20:42:52.149Z,51.17
2017-07-30T20:48:28.122Z,48.10
2017-07-30T21:02:34.032Z,52.07
2017-07-30T21:05:17.720Z,47.70
2017-07-30T21:07:44.900Z,49.67
2017-07-30T21:10:11.307Z,49.67
2017-07-30T21:12:43.813Z,50.67
2017-07-30T21:15:12.077Z,53.13
2017-07-30T21:17:38.406Z,50.47
2017-07-30T21:20:23.283Z,56.70
2017-07-30T21:22:49.727Z,51.43
2017-07-30T21:25:16.007Z,48.60
2017-07-30T21:27:42.231Z,48.93
2017-07-30T21:30:22.068Z,51.07
2017-07-30T21:33:01.836Z,55.77
2017-07-30T21:35:28.207Z,66.13
2017-07-30T21:37:54.708Z,57.00
2017-07-30T21:42:55.892Z,67.03
2017-07-30T21:45:22.194Z,55.50
2017-07-30T21:47:54.092Z,51.73
2017-07-30T21:50:22.493Z,55.57
2017-07-30T21:52:48.778Z,57.83
2017-07-30T21:55:30.819Z,55.80
2017-07-30T21:58:23.722Z,52.03
2017-07-30T22:00:53.204Z,62.33
2017-07-30T22:03:20.117Z,59.10
2017-07-30T22:05:47.056Z,59.43
2017-07-30T22:11:10.224Z,58.53
2017-07-30T22:13:36.692Z,57.10
2017-07-30T22:16:03.115Z,58.60
2017-07-30T22:18:39.489Z,57.00
2017-07-30T22:24:12.764Z,55.80
2017-07-30T22:26:39.559Z,56.00
2017-07-30T22:32:00.026Z,61.40
2017-07-30T22:34:26.518Z,57.53
2017-07-30T22:39:46.559Z,53.30
2017-07-30T22:45:05.673Z,62.93
2017-07-30T22:47:35.809Z,59.00
2017-07-30T22:50:02.346Z,56.33
2017-07-30T22:52:28.667Z,55.80
2017-07-30T22:54:56.445Z,57.03
2017-07-30T22:57:22.822Z,57.60
2017-07-30T23:11:35.959Z,53.90
2017-07-30T23:14:02.317Z,56.30
2017-07-30T23:16:29.162Z,58.77
2017-07-30T23:18:55.510Z,57.17
2017-07-30T23:21:23.100Z,59.23
2017-07-30T23:30:28.101Z,56.67
2017-07-30T23:33:01.805Z,55.97
2017-07-30T23:35:53.026Z,58.77
2017-07-30T23:41:50.272Z,56.50
2017-07-30T23:44:24.295Z,66.93
2017-07-30T23:46:55.888Z,52.93
2017-07-30T23:49:33.111Z,59.80
2017-07-30T23:57:49.273Z,57.90
